sensor_id;sensor_type;location;lat;lon;timestamp;temperature;humidity
4985;DHT22;2509;49.902;8.600;2023-07-13T00:01:10;21.80;97.00
4985;DHT22;2509;49.902;8.600;2023-07-13T00:04:13;21.80;96.40
4985;DHT22;2509;49.902;8.600;2023-07-13T00:07:16;21.70;96.90
4985;DHT22;2509;49.902;8.600;2023-07-13T00:10:20;21.60;97.30
4985;DHT22;2509;49.902;8.600;2023-07-13T00:13:22;21.50;97.20
4985;DHT22;2509;49.902;8.600;2023-07-13T00:16:24;21.40;97.60
4985;DHT22;2509;49.902;8.600;2023-07-13T00:19:26;21.40;98.40
4985;DHT22;2509;49.902;8.600;2023-07-13T00:22:29;21.50;98.50
4985;DHT22;2509;49.902;8.600;2023-07-13T00:25:30;21.40;98.60
4985;DHT22;2509;49.902;8.600;2023-07-13T00:28:33;21.40;99.00
4985;DHT22;2509;49.902;8.600;2023-07-13T00:31:35;21.40;99.40
4985;DHT22;2509;49.902;8.600;2023-07-13T00:34:37;21.30;99.80
4985;DHT22;2509;49.902;8.600;2023-07-13T00:37:41;21.30;99.50
4985;DHT22;2509;49.902;8.600;2023-07-13T00:40:42;21.20;99.10
4985;DHT22;2509;49.902;8.600;2023-07-13T00:43:44;21.10;99.10
4985;DHT22;2509;49.902;8.600;2023-07-13T00:46:46;21.10;99.00
4985;DHT22;2509;49.902;8.600;2023-07-13T00:49:48;21.00;99.30
4985;DHT22;2509;49.902;8.600;2023-07-13T00:52:54;21.00;99.90
4985;DHT22;2509;49.902;8.600;2023-07-13T00:55:58;21.00;99.90
4985;DHT22;2509;49.902;8.600;2023-07-13T00:59:02;21.00;99.90
4985;DHT22;2509;49.902;8.600;2023-07-13T01:02:04;21.00;99.90
4985;DHT22;2509;49.902;8.600;2023-07-13T01:05:09;20.90;99.90
4985;DHT22;2509;49.902;8.600;2023-07-13T01:08:12;20.90;99.90
4985;DHT22;2509;49.902;8.600;2023-07-13T01:11:18;20.80;99.90
4985;DHT22;2509;49.902;8.600;2023-07-13T01:14:20;20.70;99.90
4985;DHT22;2509;49.902;8.600;2023-07-13T01:17:22;20.60;99.90
4985;DHT22;2509;49.902;8.600;2023-07-13T01:20:23;20.50;99.90
4985;DHT22;2509;49.902;8.600;2023-07-13T01:23:27;20.40;99.90
4985;DHT22;2509;49.902;8.600;2023-07-13T01:26:29;20.50;99.90
4985;DHT22;2509;49.902;8.600;2023-07-13T01:29:32;20.50;99.90
4985;DHT22;2509;49.902;8.600;2023-07-13T01:32:34;20.50;99.90
4985;DHT22;2509;49.902;8.600;2023-07-13T01:35:37;20.40;99.90
4985;DHT22;2509;49.902;8.600;2023-07-13T01:38:40;20.40;99.90
4985;DHT22;2509;49.902;8.600;2023-07-13T01:41:42;20.40;99.90
4985;DHT22;2509;49.902;8.600;2023-07-13T01:44:44;20.30;99.90
4985;DHT22;2509;49.902;8.600;2023-07-13T01:47:45;20.30;99.90
4985;DHT22;2509;49.902;8.600;2023-07-13T01:50:47;20.10;99.90
4985;DHT22;2509;49.902;8.600;2023-07-13T01:53:50;20.00;99.90
4985;DHT22;2509;49.902;8.600;2023-07-13T01:56:52;20.00;99.90
4985;DHT22;2509;49.902;8.600;2023-07-13T01:59:54;19.90;99.90
4985;DHT22;2509;49.902;8.600;2023-07-13T02:02:56;19.90;99.90
4985;DHT22;2509;49.902;8.600;2023-07-13T02:05:57;19.80;99.90
4985;DHT22;2509;49.902;8.600;2023-07-13T02:09:00;19.80;99.90
4985;DHT22;2509;49.902;8.600;2023-07-13T02:12:03;19.60;99.90
4985;DHT22;2509;49.902;8.600;2023-07-13T02:15:05;19.50;99.90
4985;DHT22;2509;49.902;8.600;2023-07-13T02:18:07;19.50;99.90
4985;DHT22;2509;49.902;8.600;2023-07-13T02:21:09;19.50;99.90
4985;DHT22;2509;49.902;8.600;2023-07-13T02:24:12;19.60;99.90
4985;DHT22;2509;49.902;8.600;2023-07-13T02:27:18;19.60;99.90
4985;DHT22;2509;49.902;8.600;2023-07-13T02:30:20;19.60;99.90
4985;DHT22;2509;49.902;8.600;2023-07-13T02:33:23;19.40;99.90
4985;DHT22;2509;49.902;8.600;2023-07-13T02:36:25;19.30;99.90
4985;DHT22;2509;49.902;8.600;2023-07-13T02:39:28;19.30;99.90
4985;DHT22;2509;49.902;8.600;2023-07-13T02:42:30;19.30;99.90
4985;DHT22;2509;49.902;8.600;2023-07-13T02:45:31;19.30;99.90
4985;DHT22;2509;49.902;8.600;2023-07-13T02:48:33;19.20;99.90
4985;DHT22;2509;49.902;8.600;2023-07-13T02:51:35;19.10;99.90
4985;DHT22;2509;49.902;8.600;2023-07-13T02:54:38;19.00;99.90
4985;DHT22;2509;49.902;8.600;2023-07-13T02:57:40;18.90;99.90
4985;DHT22;2509;49.902;8.600;2023-07-13T03:00:42;18.90;99.90
4985;DHT22;2509;49.902;8.600;2023-07-13T03:03:44;18.80;99.90
4985;DHT22;2509;49.902;8.600;2023-07-13T03:06:46;18.80;99.90
4985;DHT22;2509;49.902;8.600;2023-07-13T03:09:54;18.70;99.90
4985;DHT22;2509;49.902;8.600;2023-07-13T03:12:55;18.60;99.90
4985;DHT22;2509;49.902;8.600;2023-07-13T03:15:57;18.60;99.90
4985;DHT22;2509;49.902;8.600;2023-07-13T03:18:59;18.60;99.90
4985;DHT22;2509;49.902;8.600;2023-07-13T03:22:01;18.50;99.90
4985;DHT22;2509;49.902;8.600;2023-07-13T03:25:05;18.60;99.90
4985;DHT22;2509;49.902;8.600;2023-07-13T03:28:06;18.60;99.90
4985;DHT22;2509;49.902;8.600;2023-07-13T03:31:10;18.60;99.90
4985;DHT22;2509;49.902;8.600;2023-07-13T03:34:12;18.60;99.90
4985;DHT22;2509;49.902;8.600;2023-07-13T03:37:14;18.60;99.90
4985;DHT22;2509;49.902;8.600;2023-07-13T03:40:17;18.60;99.90
4985;DHT22;2509;49.902;8.600;2023-07-13T03:43:19;18.70;99.90
4985;DHT22;2509;49.902;8.600;2023-07-13T03:46:20;18.70;99.90
4985;DHT22;2509;49.902;8.600;2023-07-13T03:49:22;18.70;99.90
4985;DHT22;2509;49.902;8.600;2023-07-13T03:52:24;18.70;99.90
4985;DHT22;2509;49.902;8.600;2023-07-13T03:55:27;18.70;99.90
4985;DHT22;2509;49.902;8.600;2023-07-13T03:58:31;18.70;99.90
4985;DHT22;2509;49.902;8.600;2023-07-13T04:01:33;18.70;99.90
4985;DHT22;2509;49.902;8.600;2023-07-13T04:04:35;18.60;99.90
4985;DHT22;2509;49.902;8.600;2023-07-13T04:07:41;18.50;99.90
4985;DHT22;2509;49.902;8.600;2023-07-13T04:10:44;18.60;99.90
4985;DHT22;2509;49.902;8.600;2023-07-13T04:13:47;18.60;99.90
4985;DHT22;2509;49.902;8.600;2023-07-13T04:16:49;18.60;99.90
4985;DHT22;2509;49.902;8.600;2023-07-13T04:19:50;18.60;99.90
4985;DHT22;2509;49.902;8.600;2023-07-13T04:22:52;18.50;99.90
4985;DHT22;2509;49.902;8.600;2023-07-13T04:25:55;18.50;99.90
4985;DHT22;2509;49.902;8.600;2023-07-13T04:28:57;18.50;99.90
4985;DHT22;2509;49.902;8.600;2023-07-13T04:31:59;18.50;99.90
4985;DHT22;2509;49.902;8.600;2023-07-13T04:35:01;18.40;99.90
4985;DHT22;2509;49.902;8.600;2023-07-13T04:38:02;18.50;99.90
4985;DHT22;2509;49.902;8.600;2023-07-13T04:41:08;18.40;99.90
4985;DHT22;2509;49.902;8.600;2023-07-13T04:44:10;18.40;99.90
4985;DHT22;2509;49.902;8.600;2023-07-13T04:47:12;18.40;99.90
4985;DHT22;2509;49.902;8.600;2023-07-13T04:50:14;18.40;99.90
4985;DHT22;2509;49.902;8.600;2023-07-13T04:53:20;18.20;99.90
4985;DHT22;2509;49.902;8.600;2023-07-13T04:56:23;18.20;99.90
4985;DHT22;2509;49.902;8.600;2023-07-13T04:59:25;18.20;99.90
4985;DHT22;2509;49.902;8.600;2023-07-13T05:02:26;18.10;99.90
4985;DHT22;2509;49.902;8.600;2023-07-13T05:05:28;18.20;99.90
4985;DHT22;2509;49.902;8.600;2023-07-13T05:08:30;18.40;99.90
4985;DHT22;2509;49.902;8.600;2023-07-13T05:11:33;18.40;99.90
4985;DHT22;2509;49.902;8.600;2023-07-13T05:14:35;18.40;99.90
4985;DHT22;2509;49.902;8.600;2023-07-13T05:17:37;18.40;99.90
4985;DHT22;2509;49.902;8.600;2023-07-13T05:20:39;18.50;99.90
4985;DHT22;2509;49.902;8.600;2023-07-13T05:23:41;18.50;99.90
4985;DHT22;2509;49.902;8.600;2023-07-13T05:26:44;18.50;99.90
4985;DHT22;2509;49.902;8.600;2023-07-13T05:29:46;18.60;99.90
4985;DHT22;2509;49.902;8.600;2023-07-13T05:32:48;18.60;99.90
4985;DHT22;2509;49.902;8.600;2023-07-13T05:35:49;18.70;99.90
4985;DHT22;2509;49.902;8.600;2023-07-13T05:38:51;18.80;99.90
4985;DHT22;2509;49.902;8.600;2023-07-13T05:41:54;18.90;99.90
4985;DHT22;2509;49.902;8.600;2023-07-13T05:44:56;19.00;99.90
4985;DHT22;2509;49.902;8.600;2023-07-13T05:47:58;18.90;99.90
4985;DHT22;2509;49.902;8.600;2023-07-13T05:51:00;19.00;99.90
4985;DHT22;2509;49.902;8.600;2023-07-13T05:54:03;19.10;99.90
4985;DHT22;2509;49.902;8.600;2023-07-13T05:57:06;19.20;99.90
4985;DHT22;2509;49.902;8.600;2023-07-13T06:00:08;19.20;99.90
4985;DHT22;2509;49.902;8.600;2023-07-13T06:03:10;19.30;99.90
4985;DHT22;2509;49.902;8.600;2023-07-13T06:06:12;19.50;99.90
4985;DHT22;2509;49.902;8.600;2023-07-13T06:09:14;19.60;99.90
4985;DHT22;2509;49.902;8.600;2023-07-13T06:12:17;19.70;99.90
4985;DHT22;2509;49.902;8.600;2023-07-13T06:15:19;19.80;99.90
4985;DHT22;2509;49.902;8.600;2023-07-13T06:18:22;19.90;99.90
4985;DHT22;2509;49.902;8.600;2023-07-13T06:21:24;20.10;99.90
4985;DHT22;2509;49.902;8.600;2023-07-13T06:24:26;20.10;99.90
4985;DHT22;2509;49.902;8.600;2023-07-13T06:27:29;20.30;99.90
4985;DHT22;2509;49.902;8.600;2023-07-13T06:30:31;20.40;99.90
4985;DHT22;2509;49.902;8.600;2023-07-13T06:33:33;20.60;99.90
4985;DHT22;2509;49.902;8.600;2023-07-13T06:36:35;20.60;99.90
4985;DHT22;2509;49.902;8.600;2023-07-13T06:39:38;20.70;99.90
4985;DHT22;2509;49.902;8.600;2023-07-13T06:42:41;20.90;99.90
4985;DHT22;2509;49.902;8.600;2023-07-13T06:45:44;21.00;99.80
4985;DHT22;2509;49.902;8.600;2023-07-13T06:48:47;21.10;99.20
4985;DHT22;2509;49.902;8.600;2023-07-13T06:51:49;21.30;99.40
4985;DHT22;2509;49.902;8.600;2023-07-13T06:54:51;21.50;98.80
4985;DHT22;2509;49.902;8.600;2023-07-13T06:57:54;21.60;98.70
4985;DHT22;2509;49.902;8.600;2023-07-13T07:00:56;21.60;97.30
4985;DHT22;2509;49.902;8.600;2023-07-13T07:03:57;21.70;96.50
4985;DHT22;2509;49.902;8.600;2023-07-13T07:06:59;21.80;96.00
4985;DHT22;2509;49.902;8.600;2023-07-13T07:10:01;21.90;95.60
4985;DHT22;2509;49.902;8.600;2023-07-13T07:13:04;22.00;95.70
4985;DHT22;2509;49.902;8.600;2023-07-13T07:16:06;22.20;95.20
4985;DHT22;2509;49.902;8.600;2023-07-13T07:19:09;22.30;95.30
4985;DHT22;2509;49.902;8.600;2023-07-13T07:22:10;22.30;94.90
4985;DHT22;2509;49.902;8.600;2023-07-13T07:25:12;22.50;95.30
4985;DHT22;2509;49.902;8.600;2023-07-13T07:28:16;22.60;94.70
4985;DHT22;2509;49.902;8.600;2023-07-13T07:31:18;22.70;94.00
4985;DHT22;2509;49.902;8.600;2023-07-13T07:34:20;22.80;94.50
4985;DHT22;2509;49.902;8.600;2023-07-13T07:37:22;22.90;93.30
4985;DHT22;2509;49.902;8.600;2023-07-13T07:40:23;23.00;94.20
4985;DHT22;2509;49.902;8.600;2023-07-13T07:43:27;23.10;93.50
4985;DHT22;2509;49.902;8.600;2023-07-13T07:46:29;23.20;92.70
4985;DHT22;2509;49.902;8.600;2023-07-13T07:49:30;23.30;93.00
4985;DHT22;2509;49.902;8.600;2023-07-13T07:52:32;23.20;92.20
4985;DHT22;2509;49.902;8.600;2023-07-13T07:55:34;23.20;93.00
4985;DHT22;2509;49.902;8.600;2023-07-13T07:58:37;23.40;92.60
4985;DHT22;2509;49.902;8.600;2023-07-13T08:01:39;23.60;92.40
4985;DHT22;2509;49.902;8.600;2023-07-13T08:04:41;23.70;92.10
4985;DHT22;2509;49.902;8.600;2023-07-13T08:07:42;23.80;91.70
4985;DHT22;2509;49.902;8.600;2023-07-13T08:10:44;24.00;91.60
4985;DHT22;2509;49.902;8.600;2023-07-13T08:13:47;24.00;90.70
4985;DHT22;2509;49.902;8.600;2023-07-13T08:16:49;24.00;91.30
4985;DHT22;2509;49.902;8.600;2023-07-13T08:19:51;24.00;91.30
4985;DHT22;2509;49.902;8.600;2023-07-13T08:22:52;24.10;90.70
4985;DHT22;2509;49.902;8.600;2023-07-13T08:25:55;24.30;90.70
4985;DHT22;2509;49.902;8.600;2023-07-13T08:28:58;24.40;89.90
4985;DHT22;2509;49.902;8.600;2023-07-13T08:32:00;24.50;89.00
4985;DHT22;2509;49.902;8.600;2023-07-13T08:35:02;24.70;88.70
4985;DHT22;2509;49.902;8.600;2023-07-13T08:38:04;24.80;88.80
4985;DHT22;2509;49.902;8.600;2023-07-13T08:41:12;24.80;88.30
4985;DHT22;2509;49.902;8.600;2023-07-13T08:44:22;24.80;88.60
4985;DHT22;2509;49.902;8.600;2023-07-13T08:47:30;24.90;87.90
4985;DHT22;2509;49.902;8.600;2023-07-13T08:50:41;24.70;87.50
4985;DHT22;2509;49.902;8.600;2023-07-13T08:53:49;24.80;88.10
4985;DHT22;2509;49.902;8.600;2023-07-13T08:56:53;24.80;87.40
4985;DHT22;2509;49.902;8.600;2023-07-13T08:59:56;24.80;87.90
4985;DHT22;2509;49.902;8.600;2023-07-13T09:03:00;24.80;87.40
4985;DHT22;2509;49.902;8.600;2023-07-13T09:06:02;24.80;86.90
4985;DHT22;2509;49.902;8.600;2023-07-13T09:09:10;24.60;87.20
4985;DHT22;2509;49.902;8.600;2023-07-13T09:12:19;24.40;88.10
4985;DHT22;2509;49.902;8.600;2023-07-13T09:15:28;24.40;88.40
4985;DHT22;2509;49.902;8.600;2023-07-13T09:18:35;24.40;88.00
4985;DHT22;2509;49.902;8.600;2023-07-13T09:21:40;24.40;87.90
4985;DHT22;2509;49.902;8.600;2023-07-13T09:24:52;24.50;88.30
4985;DHT22;2509;49.902;8.600;2023-07-13T09:27:58;24.40;87.60
4985;DHT22;2509;49.902;8.600;2023-07-13T09:31:04;24.60;87.30
4985;DHT22;2509;49.902;8.600;2023-07-13T09:34:09;24.80;86.00
4985;DHT22;2509;49.902;8.600;2023-07-13T09:37:11;24.90;85.40
4985;DHT22;2509;49.902;8.600;2023-07-13T09:40:17;25.10;85.30
4985;DHT22;2509;49.902;8.600;2023-07-13T09:43:23;25.60;84.70
4985;DHT22;2509;49.902;8.600;2023-07-13T09:46:26;25.90;83.80
4985;DHT22;2509;49.902;8.600;2023-07-13T09:49:29;26.20;83.90
4985;DHT22;2509;49.902;8.600;2023-07-13T09:52:41;26.60;82.60
4985;DHT22;2509;49.902;8.600;2023-07-13T09:55:44;26.80;80.20
4985;DHT22;2509;49.902;8.600;2023-07-13T09:58:47;26.60;81.20
4985;DHT22;2509;49.902;8.600;2023-07-13T10:01:50;26.70;81.30
4985;DHT22;2509;49.902;8.600;2023-07-13T10:04:56;26.60;81.40
4985;DHT22;2509;49.902;8.600;2023-07-13T10:07:58;26.50;80.60
4985;DHT22;2509;49.902;8.600;2023-07-13T10:11:01;26.60;80.90
4985;DHT22;2509;49.902;8.600;2023-07-13T10:14:13;26.70;80.10
4985;DHT22;2509;49.902;8.600;2023-07-13T10:17:19;26.90;79.60
4985;DHT22;2509;49.902;8.600;2023-07-13T10:20:27;27.20;79.70
4985;DHT22;2509;49.902;8.600;2023-07-13T10:23:31;27.30;78.90
4985;DHT22;2509;49.902;8.600;2023-07-13T10:26:34;27.40;78.70
4985;DHT22;2509;49.902;8.600;2023-07-13T10:29:42;27.70;78.20
4985;DHT22;2509;49.902;8.600;2023-07-13T10:32:47;27.60;77.80
4985;DHT22;2509;49.902;8.600;2023-07-13T10:35:50;27.60;78.50
4985;DHT22;2509;49.902;8.600;2023-07-13T10:38:54;27.50;76.60
4985;DHT22;2509;49.902;8.600;2023-07-13T10:42:02;27.20;76.40
4985;DHT22;2509;49.902;8.600;2023-07-13T10:45:13;26.60;77.20
4985;DHT22;2509;49.902;8.600;2023-07-13T10:48:17;26.60;78.80
4985;DHT22;2509;49.902;8.600;2023-07-13T10:51:20;26.70;77.90
4985;DHT22;2509;49.902;8.600;2023-07-13T10:54:27;26.90;77.70
4985;DHT22;2509;49.902;8.600;2023-07-13T10:57:29;27.10;77.40
4985;DHT22;2509;49.902;8.600;2023-07-13T11:00:32;27.20;77.20
4985;DHT22;2509;49.902;8.600;2023-07-13T11:03:49;27.30;76.90
4985;DHT22;2509;49.902;8.600;2023-07-13T11:06:57;27.40;76.40
4985;DHT22;2509;49.902;8.600;2023-07-13T11:10:04;27.50;76.10
4985;DHT22;2509;49.902;8.600;2023-07-13T11:13:39;27.60;76.90
4985;DHT22;2509;49.902;8.600;2023-07-13T11:16:58;28.10;75.60
4985;DHT22;2509;49.902;8.600;2023-07-13T11:20:18;28.80;75.40
4985;DHT22;2509;49.902;8.600;2023-07-13T11:23:28;29.30;72.40
4985;DHT22;2509;49.902;8.600;2023-07-13T11:26:39;29.70;73.10
4985;DHT22;2509;49.902;8.600;2023-07-13T11:29:43;29.80;71.80
4985;DHT22;2509;49.902;8.600;2023-07-13T11:32:45;29.50;71.80
4985;DHT22;2509;49.902;8.600;2023-07-13T11:35:59;29.70;72.50
4985;DHT22;2509;49.902;8.600;2023-07-13T11:39:03;30.00;70.50
4985;DHT22;2509;49.902;8.600;2023-07-13T11:42:10;30.30;70.00
4985;DHT22;2509;49.902;8.600;2023-07-13T11:45:24;30.80;68.20
4985;DHT22;2509;49.902;8.600;2023-07-13T11:48:28;30.30;70.40
4985;DHT22;2509;49.902;8.600;2023-07-13T11:51:34;29.50;70.50
4985;DHT22;2509;49.902;8.600;2023-07-13T11:54:46;28.60;71.90
4985;DHT22;2509;49.902;8.600;2023-07-13T11:57:54;28.90;72.10
4985;DHT22;2509;49.902;8.600;2023-07-13T12:01:01;30.00;70.90
4985;DHT22;2509;49.902;8.600;2023-07-13T12:04:05;31.10;69.00
4985;DHT22;2509;49.902;8.600;2023-07-13T12:07:17;31.40;68.00
4985;DHT22;2509;49.902;8.600;2023-07-13T12:10:22;31.30;70.20
4985;DHT22;2509;49.902;8.600;2023-07-13T12:13:26;30.80;70.90
4985;DHT22;2509;49.902;8.600;2023-07-13T12:16:32;30.30;70.90
4985;DHT22;2509;49.902;8.600;2023-07-13T12:19:35;30.10;71.80
4985;DHT22;2509;49.902;8.600;2023-07-13T12:22:37;29.90;71.60
4985;DHT22;2509;49.902;8.600;2023-07-13T12:25:39;29.80;72.40
4985;DHT22;2509;49.902;8.600;2023-07-13T12:28:46;29.70;71.50
4985;DHT22;2509;49.902;8.600;2023-07-13T12:31:50;29.20;71.50
4985;DHT22;2509;49.902;8.600;2023-07-13T12:34:54;28.70;72.60
4985;DHT22;2509;49.902;8.600;2023-07-13T12:37:57;28.70;72.60
4985;DHT22;2509;49.902;8.600;2023-07-13T12:41:01;28.60;73.40
4985;DHT22;2509;49.902;8.600;2023-07-13T12:44:05;28.50;73.30
4985;DHT22;2509;49.902;8.600;2023-07-13T12:47:13;28.40;73.40
4985;DHT22;2509;49.902;8.600;2023-07-13T12:50:17;28.30;73.90
4985;DHT22;2509;49.902;8.600;2023-07-13T12:53:21;28.50;73.90
4985;DHT22;2509;49.902;8.600;2023-07-13T12:56:26;28.60;73.70
4985;DHT22;2509;49.902;8.600;2023-07-13T12:59:31;28.30;74.00
4985;DHT22;2509;49.902;8.600;2023-07-13T13:02:38;28.10;74.30
4985;DHT22;2509;49.902;8.600;2023-07-13T13:05:40;28.40;74.40
4985;DHT22;2509;49.902;8.600;2023-07-13T13:08:43;28.40;74.00
4985;DHT22;2509;49.902;8.600;2023-07-13T13:11:45;28.40;74.00
4985;DHT22;2509;49.902;8.600;2023-07-13T13:14:46;28.10;75.20
4985;DHT22;2509;49.902;8.600;2023-07-13T13:17:50;28.00;74.70
4985;DHT22;2509;49.902;8.600;2023-07-13T13:20:52;28.20;75.60
4985;DHT22;2509;49.902;8.600;2023-07-13T13:23:54;28.30;74.70
4985;DHT22;2509;49.902;8.600;2023-07-13T13:26:56;28.10;74.70
4985;DHT22;2509;49.902;8.600;2023-07-13T13:29:59;28.00;75.40
4985;DHT22;2509;49.902;8.600;2023-07-13T13:33:05;28.00;74.50
4985;DHT22;2509;49.902;8.600;2023-07-13T13:36:12;28.00;75.30
4985;DHT22;2509;49.902;8.600;2023-07-13T13:39:20;27.90;75.30
4985;DHT22;2509;49.902;8.600;2023-07-13T13:42:23;28.00;75.30
4985;DHT22;2509;49.902;8.600;2023-07-13T13:45:25;28.20;74.80
4985;DHT22;2509;49.902;8.600;2023-07-13T13:48:31;28.10;75.20
4985;DHT22;2509;49.902;8.600;2023-07-13T13:51:33;28.20;75.20
4985;DHT22;2509;49.902;8.600;2023-07-13T13:54:34;27.90;75.20
4985;DHT22;2509;49.902;8.600;2023-07-13T13:57:36;27.60;75.60
4985;DHT22;2509;49.902;8.600;2023-07-13T14:00:39;27.30;76.00
4985;DHT22;2509;49.902;8.600;2023-07-13T14:03:43;27.40;77.50
4985;DHT22;2509;49.902;8.600;2023-07-13T14:06:45;27.90;76.40
4985;DHT22;2509;49.902;8.600;2023-07-13T14:09:47;28.50;75.20
4985;DHT22;2509;49.902;8.600;2023-07-13T14:12:59;28.60;74.50
4985;DHT22;2509;49.902;8.600;2023-07-13T14:16:16;28.00;74.90
4985;DHT22;2509;49.902;8.600;2023-07-13T14:19:20;27.60;76.70
4985;DHT22;2509;49.902;8.600;2023-07-13T14:22:23;27.60;75.90
4985;DHT22;2509;49.902;8.600;2023-07-13T14:25:26;27.40;75.70
4985;DHT22;2509;49.902;8.600;2023-07-13T14:28:27;27.40;76.60
4985;DHT22;2509;49.902;8.600;2023-07-13T14:31:30;27.70;75.80
4985;DHT22;2509;49.902;8.600;2023-07-13T14:34:33;27.80;76.30
4985;DHT22;2509;49.902;8.600;2023-07-13T14:37:35;28.20;75.20
4985;DHT22;2509;49.902;8.600;2023-07-13T14:40:38;28.50;75.60
4985;DHT22;2509;49.902;8.600;2023-07-13T14:43:39;28.70;75.10
4985;DHT22;2509;49.902;8.600;2023-07-13T14:46:42;28.50;74.80
4985;DHT22;2509;49.902;8.600;2023-07-13T14:49:45;28.40;74.90
4985;DHT22;2509;49.902;8.600;2023-07-13T14:52:48;28.20;74.90
4985;DHT22;2509;49.902;8.600;2023-07-13T14:55:50;28.00;75.60
4985;DHT22;2509;49.902;8.600;2023-07-13T14:58:52;28.00;76.40
4985;DHT22;2509;49.902;8.600;2023-07-13T15:01:54;28.10;74.50
4985;DHT22;2509;49.902;8.600;2023-07-13T15:04:58;28.00;74.80
4985;DHT22;2509;49.902;8.600;2023-07-13T15:08:02;28.00;76.00
4985;DHT22;2509;49.902;8.600;2023-07-13T15:11:04;27.70;75.40
4985;DHT22;2509;49.902;8.600;2023-07-13T15:14:08;27.40;76.70
4985;DHT22;2509;49.902;8.600;2023-07-13T15:17:23;27.30;77.20
4985;DHT22;2509;49.902;8.600;2023-07-13T15:20:29;27.00;77.90
4985;DHT22;2509;49.902;8.600;2023-07-13T15:23:32;26.80;78.40
4985;DHT22;2509;49.902;8.600;2023-07-13T15:26:33;26.70;78.10
4985;DHT22;2509;49.902;8.600;2023-07-13T15:29:35;26.70;78.80
4985;DHT22;2509;49.902;8.600;2023-07-13T15:32:37;26.80;78.60
4985;DHT22;2509;49.902;8.600;2023-07-13T15:35:41;26.80;78.90
4985;DHT22;2509;49.902;8.600;2023-07-13T15:38:44;26.80;78.10
4985;DHT22;2509;49.902;8.600;2023-07-13T15:41:47;26.80;78.50
4985;DHT22;2509;49.902;8.600;2023-07-13T15:44:51;26.80;78.80
4985;DHT22;2509;49.902;8.600;2023-07-13T15:47:52;26.80;77.70
4985;DHT22;2509;49.902;8.600;2023-07-13T15:51:01;26.80;78.30
4985;DHT22;2509;49.902;8.600;2023-07-13T15:54:04;26.90;78.60
4985;DHT22;2509;49.902;8.600;2023-07-13T15:57:09;27.20;77.90
4985;DHT22;2509;49.902;8.600;2023-07-13T16:00:18;27.60;77.70
4985;DHT22;2509;49.902;8.600;2023-07-13T16:03:22;27.90;77.90
4985;DHT22;2509;49.902;8.600;2023-07-13T16:06:28;27.90;77.00
4985;DHT22;2509;49.902;8.600;2023-07-13T16:09:31;27.70;75.90
4985;DHT22;2509;49.902;8.600;2023-07-13T16:12:33;27.70;76.60
4985;DHT22;2509;49.902;8.600;2023-07-13T16:15:35;27.70;76.90
4985;DHT22;2509;49.902;8.600;2023-07-13T16:18:37;27.80;76.10
4985;DHT22;2509;49.902;8.600;2023-07-13T16:21:44;27.90;76.20
4985;DHT22;2509;49.902;8.600;2023-07-13T16:24:50;28.10;74.80
4985;DHT22;2509;49.902;8.600;2023-07-13T16:27:59;28.20;74.90
4985;DHT22;2509;49.902;8.600;2023-07-13T16:31:01;28.20;73.90
4985;DHT22;2509;49.902;8.600;2023-07-13T16:34:05;27.90;74.40
4985;DHT22;2509;49.902;8.600;2023-07-13T16:37:14;27.70;75.20
4985;DHT22;2509;49.902;8.600;2023-07-13T16:40:22;27.70;76.10
4985;DHT22;2509;49.902;8.600;2023-07-13T16:43:24;27.60;75.00
4985;DHT22;2509;49.902;8.600;2023-07-13T16:46:26;27.60;75.60
4985;DHT22;2509;49.902;8.600;2023-07-13T16:49:30;27.70;76.00
4985;DHT22;2509;49.902;8.600;2023-07-13T16:52:34;27.90;75.20
4985;DHT22;2509;49.902;8.600;2023-07-13T16:55:35;27.80;75.20
4985;DHT22;2509;49.902;8.600;2023-07-13T16:58:37;27.70;75.60
4985;DHT22;2509;49.902;8.600;2023-07-13T17:01:39;27.60;76.40
4985;DHT22;2509;49.902;8.600;2023-07-13T17:04:41;27.40;75.90
4985;DHT22;2509;49.902;8.600;2023-07-13T17:07:45;27.40;76.80
4985;DHT22;2509;49.902;8.600;2023-07-13T17:10:47;27.50;76.30
4985;DHT22;2509;49.902;8.600;2023-07-13T17:13:49;27.40;76.00
4985;DHT22;2509;49.902;8.600;2023-07-13T17:16:53;27.30;77.30
4985;DHT22;2509;49.902;8.600;2023-07-13T17:19:57;27.20;77.70
4985;DHT22;2509;49.902;8.600;2023-07-13T17:23:01;27.30;76.80
4985;DHT22;2509;49.902;8.600;2023-07-13T17:26:03;27.40;76.90
4985;DHT22;2509;49.902;8.600;2023-07-13T17:29:05;27.30;75.80
4985;DHT22;2509;49.902;8.600;2023-07-13T17:32:14;27.10;75.90
4985;DHT22;2509;49.902;8.600;2023-07-13T17:35:23;26.90;75.80
4985;DHT22;2509;49.902;8.600;2023-07-13T17:38:31;26.70;76.30
4985;DHT22;2509;49.902;8.600;2023-07-13T17:41:36;26.50;76.90
4985;DHT22;2509;49.902;8.600;2023-07-13T17:44:38;26.30;79.10
4985;DHT22;2509;49.902;8.600;2023-07-13T17:47:40;26.20;77.90
4985;DHT22;2509;49.902;8.600;2023-07-13T17:50:44;26.10;78.10
4985;DHT22;2509;49.902;8.600;2023-07-13T17:53:51;25.90;78.20
4985;DHT22;2509;49.902;8.600;2023-07-13T17:56:53;25.70;78.80
4985;DHT22;2509;49.902;8.600;2023-07-13T17:59:55;25.60;78.80
4985;DHT22;2509;49.902;8.600;2023-07-13T18:02:58;25.60;78.30
4985;DHT22;2509;49.902;8.600;2023-07-13T18:06:03;25.50;78.90
4985;DHT22;2509;49.902;8.600;2023-07-13T18:09:14;25.50;78.70
4985;DHT22;2509;49.902;8.600;2023-07-13T18:12:16;25.40;78.90
4985;DHT22;2509;49.902;8.600;2023-07-13T18:15:20;25.30;79.40
4985;DHT22;2509;49.902;8.600;2023-07-13T18:18:22;25.30;80.30
4985;DHT22;2509;49.902;8.600;2023-07-13T18:21:25;25.10;80.10
4985;DHT22;2509;49.902;8.600;2023-07-13T18:24:31;25.00;80.10
4985;DHT22;2509;49.902;8.600;2023-07-13T18:27:33;24.90;80.50
4985;DHT22;2509;49.902;8.600;2023-07-13T18:30:35;25.00;80.50
4985;DHT22;2509;49.902;8.600;2023-07-13T18:33:37;24.90;81.00
4985;DHT22;2509;49.902;8.600;2023-07-13T18:36:39;24.80;81.10
4985;DHT22;2509;49.902;8.600;2023-07-13T18:39:42;24.80;81.10
4985;DHT22;2509;49.902;8.600;2023-07-13T18:42:46;24.70;81.20
4985;DHT22;2509;49.902;8.600;2023-07-13T18:45:49;24.70;81.70
4985;DHT22;2509;49.902;8.600;2023-07-13T18:48:52;24.60;81.50
4985;DHT22;2509;49.902;8.600;2023-07-13T18:51:54;24.50;82.20
4985;DHT22;2509;49.902;8.600;2023-07-13T18:54:57;24.50;82.60
4985;DHT22;2509;49.902;8.600;2023-07-13T18:57:59;24.50;83.20
4985;DHT22;2509;49.902;8.600;2023-07-13T19:01:12;24.50;82.60
4985;DHT22;2509;49.902;8.600;2023-07-13T19:04:27;24.50;83.90
4985;DHT22;2509;49.902;8.600;2023-07-13T19:07:29;24.40;83.50
4985;DHT22;2509;49.902;8.600;2023-07-13T19:10:33;24.40;85.00
4985;DHT22;2509;49.902;8.600;2023-07-13T19:13:34;24.30;84.10
4985;DHT22;2509;49.902;8.600;2023-07-13T19:16:37;24.20;86.60
4985;DHT22;2509;49.902;8.600;2023-07-13T19:19:40;24.10;87.40
4985;DHT22;2509;49.902;8.600;2023-07-13T19:22:42;24.10;87.40
4985;DHT22;2509;49.902;8.600;2023-07-13T19:25:47;24.00;88.60
4985;DHT22;2509;49.902;8.600;2023-07-13T19:28:52;23.90;89.40
4985;DHT22;2509;49.902;8.600;2023-07-13T19:31:55;23.80;90.90
4985;DHT22;2509;49.902;8.600;2023-07-13T19:34:56;23.70;87.70
4985;DHT22;2509;49.902;8.600;2023-07-13T19:37:58;23.60;89.90
4985;DHT22;2509;49.902;8.600;2023-07-13T19:41:01;23.60;90.60
4985;DHT22;2509;49.902;8.600;2023-07-13T19:44:05;23.50;91.30
4985;DHT22;2509;49.902;8.600;2023-07-13T19:47:11;23.50;91.90
4985;DHT22;2509;49.902;8.600;2023-07-13T19:50:13;23.30;91.10
4985;DHT22;2509;49.902;8.600;2023-07-13T19:53:18;23.20;90.50
4985;DHT22;2509;49.902;8.600;2023-07-13T19:56:22;23.10;90.90
4985;DHT22;2509;49.902;8.600;2023-07-13T19:59:27;23.10;91.70